sensor_id;sensor_type;location;lat;lon;timestamp;P1;durP1;ratioP1;P2;durP2;ratioP2
53281;SDS011;39167;52.794;6.892;2023-04-15T00:01:23;10.13;;;5.38;;
53281;SDS011;39167;52.794;6.892;2023-04-15T00:03:53;10.98;;;6.53;;
53281;SDS011;39167;52.794;6.892;2023-04-15T00:06:20;11.00;;;5.65;;
53281;SDS011;39167;52.794;6.892;2023-04-15T00:08:46;9.13;;;5.75;;
53281;SDS011;39167;52.794;6.892;2023-04-15T00:11:13;12.05;;;6.05;;
53281;SDS011;39167;52.794;6.892;2023-04-15T00:13:39;10.57;;;5.75;;
53281;SDS011;39167;52.794;6.892;2023-04-15T00:16:05;9.10;;;6.18;;
53281;SDS011;39167;52.794;6.892;2023-04-15T00:18:32;9.35;;;5.60;;
53281;SDS011;39167;52.794;6.892;2023-04-15T00:20:59;10.88;;;5.85;;
53281;SDS011;39167;52.794;6.892;2023-04-15T00:23:24;10.65;;;5.57;;
53281;SDS011;39167;52.794;6.892;2023-04-15T00:25:50;9.95;;;5.15;;
53281;SDS011;39167;52.794;6.892;2023-04-15T00:28:16;9.15;;;5.30;;
53281;SDS011;39167;52.794;6.892;2023-04-15T00:30:42;8.32;;;5.95;;
53281;SDS011;39167;52.794;6.892;2023-04-15T00:33:08;9.35;;;5.57;;
53281;SDS011;39167;52.794;6.892;2023-04-15T00:35:34;10.95;;;5.43;;
53281;SDS011;39167;52.794;6.892;2023-04-15T00:38:01;9.98;;;5.57;;
53281;SDS011;39167;52.794;6.892;2023-04-15T00:40:31;11.40;;;6.20;;
53281;SDS011;39167;52.794;6.892;2023-04-15T00:42:57;10.85;;;5.47;;
53281;SDS011;39167;52.794;6.892;2023-04-15T00:45:23;10.68;;;6.07;;
53281;SDS011;39167;52.794;6.892;2023-04-15T00:47:49;8.60;;;5.95;;
53281;SDS011;39167;52.794;6.892;2023-04-15T00:50:15;10.48;;;5.97;;
53281;SDS011;39167;52.794;6.892;2023-04-15T00:52:41;8.73;;;5.45;;
53281;SDS011;39167;52.794;6.892;2023-04-15T00:55:07;10.00;;;5.88;;
53281;SDS011;39167;52.794;6.892;2023-04-15T00:57:33;11.05;;;6.47;;
53281;SDS011;39167;52.794;6.892;2023-04-15T01:00:00;9.63;;;6.63;;
53281;SDS011;39167;52.794;6.892;2023-04-15T01:02:28;11.05;;;6.05;;
53281;SDS011;39167;52.794;6.892;2023-04-15T01:04:53;8.30;;;5.90;;
53281;SDS011;39167;52.794;6.892;2023-04-15T01:07:20;12.60;;;6.18;;
53281;SDS011;39167;52.794;6.892;2023-04-15T01:09:46;9.55;;;6.72;;
53281;SDS011;39167;52.794;6.892;2023-04-15T01:12:13;11.18;;;6.22;;
53281;SDS011;39167;52.794;6.892;2023-04-15T01:14:40;12.68;;;6.15;;
53281;SDS011;39167;52.794;6.892;2023-04-15T01:17:06;13.43;;;6.68;;
53281;SDS011;39167;52.794;6.892;2023-04-15T01:19:32;10.38;;;6.85;;
53281;SDS011;39167;52.794;6.892;2023-04-15T01:22:01;10.98;;;6.45;;
53281;SDS011;39167;52.794;6.892;2023-04-15T01:24:27;15.70;;;8.10;;
53281;SDS011;39167;52.794;6.892;2023-04-15T01:26:56;9.77;;;6.30;;
53281;SDS011;39167;52.794;6.892;2023-04-15T01:29:22;12.50;;;7.20;;
53281;SDS011;39167;52.794;6.892;2023-04-15T01:31:49;9.75;;;6.55;;
53281;SDS011;39167;52.794;6.892;2023-04-15T01:34:19;9.97;;;6.17;;
53281;SDS011;39167;52.794;6.892;2023-04-15T01:36:45;14.98;;;6.38;;
53281;SDS011;39167;52.794;6.892;2023-04-15T01:39:11;12.82;;;6.47;;
53281;SDS011;39167;52.794;6.892;2023-04-15T01:41:37;11.40;;;6.15;;
53281;SDS011;39167;52.794;6.892;2023-04-15T01:44:04;9.93;;;6.05;;
53281;SDS011;39167;52.794;6.892;2023-04-15T01:46:31;10.85;;;6.40;;
53281;SDS011;39167;52.794;6.892;2023-04-15T01:48:56;11.40;;;7.22;;
53281;SDS011;39167;52.794;6.892;2023-04-15T01:51:22;12.07;;;6.50;;
53281;SDS011;39167;52.794;6.892;2023-04-15T01:53:48;13.88;;;6.82;;
53281;SDS011;39167;52.794;6.892;2023-04-15T01:56:14;9.73;;;6.80;;
53281;SDS011;39167;52.794;6.892;2023-04-15T01:58:40;13.10;;;6.85;;
53281;SDS011;39167;52.794;6.892;2023-04-15T02:01:05;11.55;;;6.30;;
53281;SDS011;39167;52.794;6.892;2023-04-15T02:03:31;11.55;;;6.88;;
53281;SDS011;39167;52.794;6.892;2023-04-15T02:05:57;11.77;;;6.70;;
53281;SDS011;39167;52.794;6.892;2023-04-15T02:08:23;11.13;;;6.72;;
53281;SDS011;39167;52.794;6.892;2023-04-15T02:10:48;10.07;;;6.85;;
53281;SDS011;39167;52.794;6.892;2023-04-15T02:13:14;12.10;;;6.97;;
53281;SDS011;39167;52.794;6.892;2023-04-15T02:15:45;11.20;;;6.85;;
53281;SDS011;39167;52.794;6.892;2023-04-15T02:18:15;11.88;;;6.68;;
53281;SDS011;39167;52.794;6.892;2023-04-15T02:20:40;13.02;;;6.72;;
53281;SDS011;39167;52.794;6.892;2023-04-15T02:23:08;12.35;;;6.57;;
53281;SDS011;39167;52.794;6.892;2023-04-15T02:25:33;13.38;;;6.20;;
53281;SDS011;39167;52.794;6.892;2023-04-15T02:27:59;11.63;;;6.93;;
53281;SDS011;39167;52.794;6.892;2023-04-15T02:30:25;15.10;;;6.88;;
53281;SDS011;39167;52.794;6.892;2023-04-15T02:32:51;11.10;;;6.85;;
53281;SDS011;39167;52.794;6.892;2023-04-15T02:35:17;10.27;;;6.63;;
53281;SDS011;39167;52.794;6.892;2023-04-15T02:37:45;13.55;;;6.93;;
53281;SDS011;39167;52.794;6.892;2023-04-15T02:40:11;9.23;;;6.40;;
53281;SDS011;39167;52.794;6.892;2023-04-15T02:42:39;16.70;;;6.90;;
53281;SDS011;39167;52.794;6.892;2023-04-15T02:45:06;12.98;;;7.45;;
53281;SDS011;39167;52.794;6.892;2023-04-15T02:47:33;11.10;;;7.07;;
53281;SDS011;39167;52.794;6.892;2023-04-15T02:50:00;13.10;;;8.00;;
53281;SDS011;39167;52.794;6.892;2023-04-15T02:52:29;12.55;;;6.72;;
53281;SDS011;39167;52.794;6.892;2023-04-15T02:54:55;9.02;;;6.75;;
53281;SDS011;39167;52.794;6.892;2023-04-15T02:57:25;11.52;;;7.75;;
53281;SDS011;39167;52.794;6.892;2023-04-15T02:59:52;14.23;;;7.45;;
53281;SDS011;39167;52.794;6.892;2023-04-15T03:02:18;10.93;;;6.97;;
53281;SDS011;39167;52.794;6.892;2023-04-15T03:04:44;12.73;;;6.97;;
53281;SDS011;39167;52.794;6.892;2023-04-15T03:07:10;11.73;;;7.40;;
53281;SDS011;39167;52.794;6.892;2023-04-15T03:09:35;14.93;;;7.78;;
53281;SDS011;39167;52.794;6.892;2023-04-15T03:12:03;13.38;;;8.18;;
53281;SDS011;39167;52.794;6.892;2023-04-15T03:14:29;13.13;;;7.72;;
53281;SDS011;39167;52.794;6.892;2023-04-15T03:16:55;14.52;;;9.05;;
53281;SDS011;39167;52.794;6.892;2023-04-15T03:19:21;12.73;;;7.53;;
53281;SDS011;39167;52.794;6.892;2023-04-15T03:21:46;13.73;;;8.18;;
53281;SDS011;39167;52.794;6.892;2023-04-15T03:24:12;11.50;;;8.05;;
53281;SDS011;39167;52.794;6.892;2023-04-15T03:26:38;14.18;;;8.13;;
53281;SDS011;39167;52.794;6.892;2023-04-15T03:29:04;13.70;;;7.32;;
53281;SDS011;39167;52.794;6.892;2023-04-15T03:31:29;14.32;;;8.77;;
53281;SDS011;39167;52.794;6.892;2023-04-15T03:33:55;12.93;;;7.88;;
53281;SDS011;39167;52.794;6.892;2023-04-15T03:36:21;16.80;;;9.48;;
53281;SDS011;39167;52.794;6.892;2023-04-15T03:38:46;14.82;;;7.97;;
53281;SDS011;39167;52.794;6.892;2023-04-15T03:41:13;11.65;;;8.05;;
53281;SDS011;39167;52.794;6.892;2023-04-15T03:43:39;15.07;;;8.20;;
53281;SDS011;39167;52.794;6.892;2023-04-15T03:46:05;13.88;;;7.93;;
53281;SDS011;39167;52.794;6.892;2023-04-15T03:48:31;11.77;;;7.72;;
53281;SDS011;39167;52.794;6.892;2023-04-15T03:50:56;14.45;;;8.52;;
53281;SDS011;39167;52.794;6.892;2023-04-15T03:53:22;13.25;;;8.23;;
53281;SDS011;39167;52.794;6.892;2023-04-15T03:55:47;13.77;;;8.30;;
53281;SDS011;39167;52.794;6.892;2023-04-15T03:58:13;12.65;;;7.78;;
53281;SDS011;39167;52.794;6.892;2023-04-15T04:00:39;14.45;;;7.82;;
53281;SDS011;39167;52.794;6.892;2023-04-15T04:03:05;11.52;;;7.82;;
53281;SDS011;39167;52.794;6.892;2023-04-15T04:05:31;14.98;;;8.60;;
53281;SDS011;39167;52.794;6.892;2023-04-15T04:07:57;12.93;;;7.82;;
53281;SDS011;39167;52.794;6.892;2023-04-15T04:10:22;13.73;;;7.55;;
53281;SDS011;39167;52.794;6.892;2023-04-15T04:12:48;13.50;;;8.55;;
53281;SDS011;39167;52.794;6.892;2023-04-15T04:15:14;13.32;;;8.38;;
53281;SDS011;39167;52.794;6.892;2023-04-15T04:17:39;12.60;;;7.55;;
53281;SDS011;39167;52.794;6.892;2023-04-15T04:20:05;13.57;;;8.13;;
53281;SDS011;39167;52.794;6.892;2023-04-15T04:22:36;13.02;;;8.00;;
53281;SDS011;39167;52.794;6.892;2023-04-15T04:25:05;11.98;;;7.80;;
53281;SDS011;39167;52.794;6.892;2023-04-15T04:27:32;15.15;;;8.63;;
53281;SDS011;39167;52.794;6.892;2023-04-15T04:29:58;12.82;;;7.88;;
53281;SDS011;39167;52.794;6.892;2023-04-15T04:32:24;13.57;;;8.43;;
53281;SDS011;39167;52.794;6.892;2023-04-15T04:34:50;20.15;;;9.63;;
53281;SDS011;39167;52.794;6.892;2023-04-15T04:37:16;17.52;;;9.05;;
53281;SDS011;39167;52.794;6.892;2023-04-15T04:39:41;16.17;;;9.60;;
53281;SDS011;39167;52.794;6.892;2023-04-15T04:42:07;15.68;;;9.68;;
53281;SDS011;39167;52.794;6.892;2023-04-15T04:44:33;14.18;;;8.32;;
53281;SDS011;39167;52.794;6.892;2023-04-15T04:46:58;14.93;;;8.68;;
53281;SDS011;39167;52.794;6.892;2023-04-15T04:49:24;18.27;;;10.95;;
53281;SDS011;39167;52.794;6.892;2023-04-15T04:51:50;14.23;;;8.88;;
53281;SDS011;39167;52.794;6.892;2023-04-15T04:54:16;16.05;;;9.25;;
53281;SDS011;39167;52.794;6.892;2023-04-15T04:56:42;15.43;;;9.95;;
53281;SDS011;39167;52.794;6.892;2023-04-15T04:59:08;17.73;;;10.68;;
53281;SDS011;39167;52.794;6.892;2023-04-15T05:01:33;18.60;;;10.05;;
53281;SDS011;39167;52.794;6.892;2023-04-15T05:03:59;17.65;;;9.90;;
53281;SDS011;39167;52.794;6.892;2023-04-15T05:06:25;15.98;;;9.73;;
53281;SDS011;39167;52.794;6.892;2023-04-15T05:08:51;20.48;;;10.50;;
53281;SDS011;39167;52.794;6.892;2023-04-15T05:11:17;15.57;;;9.90;;
53281;SDS011;39167;52.794;6.892;2023-04-15T05:13:43;18.98;;;10.93;;
53281;SDS011;39167;52.794;6.892;2023-04-15T05:16:08;17.73;;;10.95;;
53281;SDS011;39167;52.794;6.892;2023-04-15T05:18:34;19.58;;;11.60;;
53281;SDS011;39167;52.794;6.892;2023-04-15T05:21:00;20.38;;;12.13;;
53281;SDS011;39167;52.794;6.892;2023-04-15T05:23:26;18.02;;;12.07;;
53281;SDS011;39167;52.794;6.892;2023-04-15T05:25:52;21.65;;;12.23;;
53281;SDS011;39167;52.794;6.892;2023-04-15T05:28:18;16.75;;;10.35;;
53281;SDS011;39167;52.794;6.892;2023-04-15T05:30:43;17.02;;;10.07;;
53281;SDS011;39167;52.794;6.892;2023-04-15T05:33:10;17.92;;;10.73;;
53281;SDS011;39167;52.794;6.892;2023-04-15T05:35:36;19.02;;;11.75;;
53281;SDS011;39167;52.794;6.892;2023-04-15T05:38:01;18.42;;;11.43;;
53281;SDS011;39167;52.794;6.892;2023-04-15T05:40:29;20.65;;;11.30;;
53281;SDS011;39167;52.794;6.892;2023-04-15T05:42:55;21.23;;;11.98;;
53281;SDS011;39167;52.794;6.892;2023-04-15T05:45:21;19.23;;;12.50;;
53281;SDS011;39167;52.794;6.892;2023-04-15T05:47:47;20.92;;;12.32;;
53281;SDS011;39167;52.794;6.892;2023-04-15T05:50:15;19.50;;;11.77;;
53281;SDS011;39167;52.794;6.892;2023-04-15T05:52:40;18.55;;;12.32;;
53281;SDS011;39167;52.794;6.892;2023-04-15T05:55:06;21.30;;;13.23;;
53281;SDS011;39167;52.794;6.892;2023-04-15T05:57:33;18.63;;;11.50;;
53281;SDS011;39167;52.794;6.892;2023-04-15T05:59:58;20.70;;;12.93;;
53281;SDS011;39167;52.794;6.892;2023-04-15T06:02:24;20.90;;;12.23;;
53281;SDS011;39167;52.794;6.892;2023-04-15T06:04:50;21.20;;;12.80;;
53281;SDS011;39167;52.794;6.892;2023-04-15T06:07:16;20.27;;;13.18;;
53281;SDS011;39167;52.794;6.892;2023-04-15T06:09:41;23.65;;;14.45;;
53281;SDS011;39167;52.794;6.892;2023-04-15T06:12:07;23.33;;;14.63;;
53281;SDS011;39167;52.794;6.892;2023-04-15T06:14:39;20.77;;;12.25;;
53281;SDS011;39167;52.794;6.892;2023-04-15T06:17:05;23.90;;;13.30;;
53281;SDS011;39167;52.794;6.892;2023-04-15T06:19:31;23.13;;;13.30;;
53281;SDS011;39167;52.794;6.892;2023-04-15T06:21:57;23.40;;;13.27;;
53281;SDS011;39167;52.794;6.892;2023-04-15T06:24:23;21.88;;;13.52;;
53281;SDS011;39167;52.794;6.892;2023-04-15T06:26:49;20.02;;;12.57;;
53281;SDS011;39167;52.794;6.892;2023-04-15T06:29:15;23.70;;;13.55;;
53281;SDS011;39167;52.794;6.892;2023-04-15T06:31:40;20.38;;;12.25;;
53281;SDS011;39167;52.794;6.892;2023-04-15T06:34:06;21.15;;;13.38;;
53281;SDS011;39167;52.794;6.892;2023-04-15T06:36:32;22.92;;;13.50;;
53281;SDS011;39167;52.794;6.892;2023-04-15T06:38:58;21.08;;;12.55;;
53281;SDS011;39167;52.794;6.892;2023-04-15T06:41:23;21.33;;;12.10;;
53281;SDS011;39167;52.794;6.892;2023-04-15T06:43:49;21.55;;;12.45;;
53281;SDS011;39167;52.794;6.892;2023-04-15T06:46:15;27.20;;;13.40;;
53281;SDS011;39167;52.794;6.892;2023-04-15T06:48:41;24.83;;;12.60;;
53281;SDS011;39167;52.794;6.892;2023-04-15T06:51:07;19.58;;;11.32;;
53281;SDS011;39167;52.794;6.892;2023-04-15T06:53:32;21.55;;;13.82;;
53281;SDS011;39167;52.794;6.892;2023-04-15T06:55:59;18.33;;;11.20;;
53281;SDS011;39167;52.794;6.892;2023-04-15T06:58:25;21.80;;;12.98;;
53281;SDS011;39167;52.794;6.892;2023-04-15T07:00:51;24.65;;;13.00;;
53281;SDS011;39167;52.794;6.892;2023-04-15T07:03:17;21.27;;;12.35;;
53281;SDS011;39167;52.794;6.892;2023-04-15T07:05:43;21.30;;;12.45;;
53281;SDS011;39167;52.794;6.892;2023-04-15T07:08:08;19.65;;;11.90;;
53281;SDS011;39167;52.794;6.892;2023-04-15T07:10:34;22.63;;;14.05;;
53281;SDS011;39167;52.794;6.892;2023-04-15T07:13:01;22.23;;;12.52;;
53281;SDS011;39167;52.794;6.892;2023-04-15T07:15:26;18.88;;;11.57;;
53281;SDS011;39167;52.794;6.892;2023-04-15T07:17:52;20.40;;;11.48;;
53281;SDS011;39167;52.794;6.892;2023-04-15T07:20:18;17.20;;;10.32;;
53281;SDS011;39167;52.794;6.892;2023-04-15T07:22:44;16.67;;;9.90;;
53281;SDS011;39167;52.794;6.892;2023-04-15T07:25:09;18.13;;;10.30;;
53281;SDS011;39167;52.794;6.892;2023-04-15T07:27:35;16.65;;;9.18;;
53281;SDS011;39167;52.794;6.892;2023-04-15T07:30:01;17.13;;;9.40;;
53281;SDS011;39167;52.794;6.892;2023-04-15T07:32:27;16.60;;;8.30;;
53281;SDS011;39167;52.794;6.892;2023-04-15T07:34:53;14.25;;;8.57;;
53281;SDS011;39167;52.794;6.892;2023-04-15T07:37:19;11.10;;;6.80;;
53281;SDS011;39167;52.794;6.892;2023-04-15T07:39:44;12.48;;;7.57;;
53281;SDS011;39167;52.794;6.892;2023-04-15T07:42:10;12.98;;;7.47;;
53281;SDS011;39167;52.794;6.892;2023-04-15T07:44:36;14.10;;;8.13;;
53281;SDS011;39167;52.794;6.892;2023-04-15T07:47:01;15.20;;;8.05;;
53281;SDS011;39167;52.794;6.892;2023-04-15T07:49:28;12.15;;;7.40;;
53281;SDS011;39167;52.794;6.892;2023-04-15T07:51:53;13.20;;;6.78;;
53281;SDS011;39167;52.794;6.892;2023-04-15T07:54:21;14.80;;;7.30;;
53281;SDS011;39167;52.794;6.892;2023-04-15T07:56:47;11.75;;;7.10;;
53281;SDS011;39167;52.794;6.892;2023-04-15T07:59:13;15.23;;;7.78;;
53281;SDS011;39167;52.794;6.892;2023-04-15T08:01:42;14.73;;;7.72;;
53281;SDS011;39167;52.794;6.892;2023-04-15T08:04:08;13.43;;;7.63;;
53281;SDS011;39167;52.794;6.892;2023-04-15T08:06:34;12.73;;;7.57;;
53281;SDS011;39167;52.794;6.892;2023-04-15T08:09:00;16.25;;;7.03;;
53281;SDS011;39167;52.794;6.892;2023-04-15T08:11:26;14.45;;;6.72;;
53281;SDS011;39167;52.794;6.892;2023-04-15T08:13:52;13.02;;;7.70;;
53281;SDS011;39167;52.794;6.892;2023-04-15T08:16:19;12.82;;;6.80;;
53281;SDS011;39167;52.794;6.892;2023-04-15T08:18:46;13.40;;;7.47;;
53281;SDS011;39167;52.794;6.892;2023-04-15T08:21:13;13.93;;;7.03;;
53281;SDS011;39167;52.794;6.892;2023-04-15T08:23:39;12.27;;;6.82;;
53281;SDS011;39167;52.794;6.892;2023-04-15T08:26:06;11.30;;;5.32;;
53281;SDS011;39167;52.794;6.892;2023-04-15T08:28:32;10.23;;;5.05;;
53281;SDS011;39167;52.794;6.892;2023-04-15T08:30:58;13.50;;;5.53;;
53281;SDS011;39167;52.794;6.892;2023-04-15T08:33:24;10.35;;;5.07;;
53281;SDS011;39167;52.794;6.892;2023-04-15T08:35:50;9.68;;;5.30;;
53281;SDS011;39167;52.794;6.892;2023-04-15T08:38:16;8.75;;;4.22;;
53281;SDS011;39167;52.794;6.892;2023-04-15T08:40:43;8.52;;;4.38;;
53281;SDS011;39167;52.794;6.892;2023-04-15T08:43:14;10.68;;;4.50;;
53281;SDS011;39167;52.794;6.892;2023-04-15T08:45:46;13.05;;;4.55;;
53281;SDS011;39167;52.794;6.892;2023-04-15T08:48:15;8.48;;;4.22;;
53281;SDS011;39167;52.794;6.892;2023-04-15T08:50:42;5.55;;;3.45;;
53281;SDS011;39167;52.794;6.892;2023-04-15T08:53:08;10.05;;;4.45;;
53281;SDS011;39167;52.794;6.892;2023-04-15T08:55:35;10.55;;;4.15;;
53281;SDS011;39167;52.794;6.892;2023-04-15T08:58:03;7.00;;;3.75;;
53281;SDS011;39167;52.794;6.892;2023-04-15T09:00:31;7.78;;;4.13;;
53281;SDS011;39167;52.794;6.892;2023-04-15T09:02:58;14.13;;;4.03;;
53281;SDS011;39167;52.794;6.892;2023-04-15T09:05:24;10.38;;;4.45;;
53281;SDS011;39167;52.794;6.892;2023-04-15T09:07:50;8.45;;;3.60;;
53281;SDS011;39167;52.794;6.892;2023-04-15T09:10:16;7.80;;;3.60;;
53281;SDS011;39167;52.794;6.892;2023-04-15T09:12:42;8.52;;;3.60;;
53281;SDS011;39167;52.794;6.892;2023-04-15T09:15:10;7.88;;;3.47;;
53281;SDS011;39167;52.794;6.892;2023-04-15T09:17:41;12.07;;;3.65;;
53281;SDS011;39167;52.794;6.892;2023-04-15T09:20:11;5.88;;;3.25;;
53281;SDS011;39167;52.794;6.892;2023-04-15T09:22:39;7.90;;;3.67;;
53281;SDS011;39167;52.794;6.892;2023-04-15T09:27:52;10.20;;;3.60;;
53281;SDS011;39167;52.794;6.892;2023-04-15T09:30:20;7.28;;;3.22;;
53281;SDS011;39167;52.794;6.892;2023-04-15T09:35:22;7.07;;;3.63;;
53281;SDS011;39167;52.794;6.892;2023-04-15T09:37:49;5.55;;;3.22;;
53281;SDS011;39167;52.794;6.892;2023-04-15T09:42:57;10.00;;;2.92;;
53281;SDS011;39167;52.794;6.892;2023-04-15T09:45:23;5.82;;;3.30;;
53281;SDS011;39167;52.794;6.892;2023-04-15T09:47:49;7.72;;;3.20;;
53281;SDS011;39167;52.794;6.892;2023-04-15T09:50:17;5.50;;;3.00;;
53281;SDS011;39167;52.794;6.892;2023-04-15T09:52:43;7.88;;;3.47;;
53281;SDS011;39167;52.794;6.892;2023-04-15T09:55:09;6.60;;;3.20;;
53281;SDS011;39167;52.794;6.892;2023-04-15T09:57:37;5.43;;;3.20;;
53281;SDS011;39167;52.794;6.892;2023-04-15T10:00:05;5.82;;;2.90;;
53281;SDS011;39167;52.794;6.892;2023-04-15T10:02:33;6.20;;;2.92;;
53281;SDS011;39167;52.794;6.892;2023-04-15T10:05:00;9.75;;;3.25;;
53281;SDS011;39167;52.794;6.892;2023-04-15T10:07:27;7.40;;;3.33;;
53281;SDS011;39167;52.794;6.892;2023-04-15T10:09:53;6.38;;;2.75;;
53281;SDS011;39167;52.794;6.892;2023-04-15T10:12:19;6.35;;;2.65;;
53281;SDS011;39167;52.794;6.892;2023-04-15T10:14:55;5.28;;;2.97;;
53281;SDS011;39167;52.794;6.892;2023-04-15T10:17:27;5.35;;;2.65;;
53281;SDS011;39167;52.794;6.892;2023-04-15T10:19:57;4.80;;;2.58;;
53281;SDS011;39167;52.794;6.892;2023-04-15T10:22:26;7.63;;;2.70;;
53281;SDS011;39167;52.794;6.892;2023-04-15T10:24:52;7.10;;;2.80;;
53281;SDS011;39167;52.794;6.892;2023-04-15T10:27:23;6.10;;;2.80;;
53281;SDS011;39167;52.794;6.892;2023-04-15T10:29:51;7.00;;;2.60;;
53281;SDS011;39167;52.794;6.892;2023-04-15T10:32:17;10.15;;;2.72;;
53281;SDS011;39167;52.794;6.892;2023-04-15T10:34:45;3.50;;;2.22;;
53281;SDS011;39167;52.794;6.892;2023-04-15T10:37:18;5.30;;;2.35;;
53281;SDS011;39167;52.794;6.892;2023-04-15T10:39:45;4.95;;;2.30;;
53281;SDS011;39167;52.794;6.892;2023-04-15T10:42:13;4.78;;;2.50;;
53281;SDS011;39167;52.794;6.892;2023-04-15T10:44:44;7.13;;;2.42;;
53281;SDS011;39167;52.794;6.892;2023-04-15T10:47:14;4.70;;;2.35;;
53281;SDS011;39167;52.794;6.892;2023-04-15T10:50:02;6.53;;;2.80;;
53281;SDS011;39167;52.794;6.892;2023-04-15T10:52:31;6.50;;;2.42;;
53281;SDS011;39167;52.794;6.892;2023-04-15T10:55:11;5.18;;;2.30;;
53281;SDS011;39167;52.794;6.892;2023-04-15T10:57:41;8.80;;;2.72;;
53281;SDS011;39167;52.794;6.892;2023-04-15T11:00:09;6.88;;;2.58;;
53281;SDS011;39167;52.794;6.892;2023-04-15T11:05:05;5.68;;;2.60;;
53281;SDS011;39167;52.794;6.892;2023-04-15T11:07:48;5.88;;;2.88;;
53281;SDS011;39167;52.794;6.892;2023-04-15T11:12:51;4.32;;;2.40;;
53281;SDS011;39167;52.794;6.892;2023-04-15T11:15:38;8.15;;;2.70;;
53281;SDS011;39167;52.794;6.892;2023-04-15T11:18:12;6.97;;;2.88;;
53281;SDS011;39167;52.794;6.892;2023-04-15T11:20:43;6.68;;;2.63;;
53281;SDS011;39167;52.794;6.892;2023-04-15T11:23:41;6.38;;;2.25;;
53281;SDS011;39167;52.794;6.892;2023-04-15T11:26:11;5.82;;;2.10;;
53281;SDS011;39167;52.794;6.892;2023-04-15T11:28:44;8.70;;;2.58;;
53281;SDS011;39167;52.794;6.892;2023-04-15T11:31:16;4.88;;;2.40;;
53281;SDS011;39167;52.794;6.892;2023-04-15T11:33:53;4.43;;;1.77;;
53281;SDS011;39167;52.794;6.892;2023-04-15T11:36:23;4.82;;;1.80;;
53281;SDS011;39167;52.794;6.892;2023-04-15T11:38:53;5.85;;;2.22;;
53281;SDS011;39167;52.794;6.892;2023-04-15T11:41:19;4.10;;;1.85;;
53281;SDS011;39167;52.794;6.892;2023-04-15T11:43:48;4.53;;;2.00;;
53281;SDS011;39167;52.794;6.892;2023-04-15T11:46:14;4.90;;;2.10;;
53281;SDS011;39167;52.794;6.892;2023-04-15T11:48:44;3.78;;;2.10;;
53281;SDS011;39167;52.794;6.892;2023-04-15T11:51:11;5.80;;;2.20;;
53281;SDS011;39167;52.794;6.892;2023-04-15T11:53:42;6.65;;;2.30;;
53281;SDS011;39167;52.794;6.892;2023-04-15T11:56:16;4.55;;;1.83;;
53281;SDS011;39167;52.794;6.892;2023-04-15T11:58:44;5.65;;;1.85;;
53281;SDS011;39167;52.794;6.892;2023-04-15T12:01:10;5.72;;;2.00;;
53281;SDS011;39167;52.794;6.892;2023-04-15T12:03:37;6.57;;;1.95;;
53281;SDS011;39167;52.794;6.892;2023-04-15T12:11:37;3.47;;;1.75;;
53281;SDS011;39167;52.794;6.892;2023-04-15T12:14:11;5.88;;;2.42;;
53281;SDS011;39167;52.794;6.892;2023-04-15T12:16:54;6.57;;;2.35;;
53281;SDS011;39167;52.794;6.892;2023-04-15T12:19:27;6.10;;;2.03;;
53281;SDS011;39167;52.794;6.892;2023-04-15T12:22:17;8.35;;;2.58;;
53281;SDS011;39167;52.794;6.892;2023-04-15T12:24:44;6.07;;;2.10;;
53281;SDS011;39167;52.794;6.892;2023-04-15T12:27:14;5.00;;;2.20;;
53281;SDS011;39167;52.794;6.892;2023-04-15T12:29:41;7.63;;;2.40;;
53281;SDS011;39167;52.794;6.892;2023-04-15T12:34:35;5.93;;;2.50;;
53281;SDS011;39167;52.794;6.892;2023-04-15T12:37:02;8.52;;;2.55;;
53281;SDS011;39167;52.794;6.892;2023-04-15T12:39:30;5.30;;;2.30;;
53281;SDS011;39167;52.794;6.892;2023-04-15T12:41:59;6.32;;;2.30;;
53281;SDS011;39167;52.794;6.892;2023-04-15T12:44:25;9.50;;;2.75;;
53281;SDS011;39167;52.794;6.892;2023-04-15T12:46:52;8.70;;;2.30;;
53281;SDS011;39167;52.794;6.892;2023-04-15T12:49:19;6.97;;;2.47;;
53281;SDS011;39167;52.794;6.892;2023-04-15T12:51:47;11.25;;;3.03;;
53281;SDS011;39167;52.794;6.892;2023-04-15T12:54:15;7.07;;;2.35;;
53281;SDS011;39167;52.794;6.892;2023-04-15T12:56:41;5.70;;;2.30;;
53281;SDS011;39167;52.794;6.892;2023-04-15T12:59:08;8.30;;;2.20;;
53281;SDS011;39167;52.794;6.892;2023-04-15T13:01:34;8.15;;;2.63;;
53281;SDS011;39167;52.794;6.892;2023-04-15T13:04:00;7.88;;;2.60;;
53281;SDS011;39167;52.794;6.892;2023-04-15T13:06:26;7.97;;;2.83;;
53281;SDS011;39167;52.794;6.892;2023-04-15T13:08:53;7.60;;;2.28;;
53281;SDS011;39167;52.794;6.892;2023-04-15T13:11:20;5.90;;;1.98;;
53281;SDS011;39167;52.794;6.892;2023-04-15T13:13:49;7.82;;;2.30;;
53281;SDS011;39167;52.794;6.892;2023-04-15T13:16:16;6.75;;;2.50;;
53281;SDS011;39167;52.794;6.892;2023-04-15T13:18:43;9.80;;;2.97;;
53281;SDS011;39167;52.794;6.892;2023-04-15T13:21:10;7.53;;;2.38;;
53281;SDS011;39167;52.794;6.892;2023-04-15T13:23:37;5.93;;;2.40;;
53281;SDS011;39167;52.794;6.892;2023-04-15T13:26:02;6.57;;;3.25;;
53281;SDS011;39167;52.794;6.892;2023-04-15T13:28:28;4.88;;;2.33;;
53281;SDS011;39167;52.794;6.892;2023-04-15T13:30:54;7.38;;;2.65;;
53281;SDS011;39167;52.794;6.892;2023-04-15T13:33:20;6.68;;;2.58;;
53281;SDS011;39167;52.794;6.892;2023-04-15T13:35:45;5.85;;;2.88;;
53281;SDS011;39167;52.794;6.892;2023-04-15T13:38:11;6.55;;;2.25;;
53281;SDS011;39167;52.794;6.892;2023-04-15T13:40:37;8.60;;;3.03;;
53281;SDS011;39167;52.794;6.892;2023-04-15T13:43:02;10.18;;;2.60;;
53281;SDS011;39167;52.794;6.892;2023-04-15T13:45:28;7.25;;;3.13;;
53281;SDS011;39167;52.794;6.892;2023-04-15T13:47:55;8.75;;;2.80;;
53281;SDS011;39167;52.794;6.892;2023-04-15T13:50:21;7.88;;;2.40;;
53281;SDS011;39167;52.794;6.892;2023-04-15T13:52:47;8.57;;;3.15;;
53281;SDS011;39167;52.794;6.892;2023-04-15T13:55:13;5.50;;;2.20;;
53281;SDS011;39167;52.794;6.892;2023-04-15T13:57:38;5.55;;;2.58;;
53281;SDS011;39167;52.794;6.892;2023-04-15T14:00:04;6.07;;;2.50;;
53281;SDS011;39167;52.794;6.892;2023-04-15T14:02:31;10.25;;;3.05;;
53281;SDS011;39167;52.794;6.892;2023-04-15T14:04:56;9.77;;;2.65;;
53281;SDS011;39167;52.794;6.892;2023-04-15T14:07:22;6.60;;;2.58;;
53281;SDS011;39167;52.794;6.892;2023-04-15T14:09:48;8.85;;;2.70;;
53281;SDS011;39167;52.794;6.892;2023-04-15T14:12:13;7.72;;;2.65;;
53281;SDS011;39167;52.794;6.892;2023-04-15T14:14:39;10.32;;;2.33;;
53281;SDS011;39167;52.794;6.892;2023-04-15T14:17:05;7.78;;;2.53;;
53281;SDS011;39167;52.794;6.892;2023-04-15T14:19:31;8.85;;;2.80;;
53281;SDS011;39167;52.794;6.892;2023-04-15T14:21:59;9.48;;;2.72;;
53281;SDS011;39167;52.794;6.892;2023-04-15T14:24:24;5.78;;;2.63;;
53281;SDS011;39167;52.794;6.892;2023-04-15T14:26:50;8.38;;;3.22;;
53281;SDS011;39167;52.794;6.892;2023-04-15T14:29:16;10.07;;;3.17;;
53281;SDS011;39167;52.794;6.892;2023-04-15T14:31:42;8.40;;;3.20;;
53281;SDS011;39167;52.794;6.892;2023-04-15T14:34:09;10.82;;;3.38;;
53281;SDS011;39167;52.794;6.892;2023-04-15T14:36:35;9.45;;;3.20;;
53281;SDS011;39167;52.794;6.892;2023-04-15T14:39:02;10.05;;;3.55;;
53281;SDS011;39167;52.794;6.892;2023-04-15T14:41:28;10.73;;;3.05;;
53281;SDS011;39167;52.794;6.892;2023-04-15T14:43:54;10.27;;;3.13;;
53281;SDS011;39167;52.794;6.892;2023-04-15T14:46:20;10.13;;;3.60;;
53281;SDS011;39167;52.794;6.892;2023-04-15T14:48:47;18.73;;;3.83;;
53281;SDS011;39167;52.794;6.892;2023-04-15T14:51:13;10.02;;;3.50;;
53281;SDS011;39167;52.794;6.892;2023-04-15T14:53:40;9.80;;;3.47;;
53281;SDS011;39167;52.794;6.892;2023-04-15T14:56:06;9.63;;;3.42;;
53281;SDS011;39167;52.794;6.892;2023-04-15T14:58:32;12.85;;;3.80;;